Time;durP1;ratioP1;P1;durP2;ratioP2;P2;SDS_P1;SDS_P2;PMS_P1;PMS_P2;Temp;Humidity;BMP_temperature;BMP_pressure;BME280_temperature;BME280_humidity;BME280_pressure;Samples;Min_cycle;Max_cycle;Signal;HPM_P1;HPM_P2
2021/01/29 00:02:21;;;;;;;10.30;9.07;;;;;;;;;;5053391;28;20452;-69
2021/01/29 00:04:48;;;;;;;10.30;8.30;;;;;;;;;;5049690;28;20495;-68
2021/01/29 00:07:15;;;;;;;9.60;8.80;;;;;;;;;;5053462;28;20501;-68
2021/01/29 00:09:42;;;;;;;9.87;8.73;;;;;;;;;;5051575;28;20484;-67
2021/01/29 00:12:09;;;;;;;11.27;10.40;;;;;;;;;;5052002;28;20472;-68
2021/01/29 00:14:35;;;;;;;10.27;9.37;;;;;;;;;;5052518;28;20475;-70
2021/01/29 00:17:02;;;;;;;10.70;9.90;;;;;;;;;;5053010;28;20456;-68
2021/01/29 00:19:29;;;;;;;14.30;10.60;;;;;;;;;;5051234;28;20943;-68
2021/01/29 00:21:55;;;;;;;10.50;9.50;;;;;;;;;;5051696;28;20464;-69
2021/01/29 00:24:23;;;;;;;10.80;9.60;;;;;;;;;;5053265;28;21036;-68
2021/01/29 00:26:49;;;;;;;9.40;8.47;;;;;;;;;;5050633;28;21012;-69
2021/01/29 00:29:16;;;;;;;9.57;8.73;;;;;;;;;;5052260;28;20482;-68
2021/01/29 00:31:42;;;;;;;8.90;8.07;;;;;;;;;;5050097;28;20456;-68
2021/01/29 00:34:09;;;;;;;9.80;8.90;;;;;;;;;;5050165;28;20489;-68
2021/01/29 00:36:36;;;;;;;9.90;9.00;;;;;;;;;;5050870;28;20974;-68
2021/01/29 00:39:02;;;;;;;10.20;9.10;;;;;;;;;;5052567;28;20497;-68
2021/01/29 00:41:30;;;;;;;9.47;8.67;;;;;;;;;;5050508;28;20475;-68
2021/01/29 00:43:56;;;;;;;10.13;9.13;;;;;;;;;;5032701;28;20440;-70
2021/01/29 00:46:23;;;;;;;10.77;8.63;;;;;;;;;;5051943;28;20458;-68
2021/01/29 00:48:49;;;;;;;11.10;9.60;;;;;;;;;;5050569;28;20525;-68
2021/01/29 00:51:16;;;;;;;10.17;9.17;;;;;;;;;;5051411;28;20524;-68
2021/01/29 00:53:44;;;;;;;10.27;9.30;;;;;;;;;;5050513;28;20490;-68
2021/01/29 00:56:10;;;;;;;18.23;10.13;;;;;;;;;;5050610;28;20487;-68
2021/01/29 00:58:38;;;;;;;10.97;10.07;;;;;;;;;;5051518;28;20460;-68
2021/01/29 01:01:05;;;;;;;10.13;9.20;;;;;;;;;;5051732;28;20458;-68
2021/01/29 01:03:31;;;;;;;10.10;9.07;;;;;;;;;;5051334;28;20464;-68
2021/01/29 01:05:58;;;;;;;10.57;9.57;;;;;;;;;;5051522;28;20480;-69
2021/01/29 01:08:25;;;;;;;9.80;8.43;;;;;;;;;;5049268;28;20488;-68
2021/01/29 01:10:52;;;;;;;10.77;9.47;;;;;;;;;;5050292;28;20529;-67
2021/01/29 01:13:18;;;;;;;9.63;8.87;;;;;;;;;;5049757;28;21005;-69
2021/01/29 01:15:46;;;;;;;9.90;9.10;;;;;;;;;;5051827;28;20478;-68
2021/01/29 01:18:13;;;;;;;9.80;8.83;;;;;;;;;;5041445;28;20497;-68
2021/01/29 01:20:39;;;;;;;10.73;9.70;;;;;;;;;;5049478;28;20471;-69
2021/01/29 01:23:06;;;;;;;8.87;8.13;;;;;;;;;;5049541;28;20468;-69
2021/01/29 01:25:32;;;;;;;9.43;8.63;;;;;;;;;;5051939;28;20503;-69
2021/01/29 01:27:59;;;;;;;9.30;8.50;;;;;;;;;;5049838;28;20525;-69
2021/01/29 01:30:29;;;;;;;8.80;7.90;;;;;;;;;;5050700;28;20468;-70
2021/01/29 01:32:56;;;;;;;9.80;8.10;;;;;;;;;;5051824;28;20452;-69
2021/01/29 01:35:23;;;;;;;9.90;9.10;;;;;;;;;;5052027;28;20468;-69
2021/01/29 01:37:50;;;;;;;8.97;8.07;;;;;;;;;;5053034;28;20451;-69
2021/01/29 01:40:20;;;;;;;9.00;8.20;;;;;;;;;;5056364;28;20450;-68
2021/01/29 01:42:46;;;;;;;9.87;8.33;;;;;;;;;;5058462;28;20448;-69
2021/01/29 01:45:31;;;;;;;8.63;7.83;;;;;;;;;;5056075;28;20528;-69
2021/01/29 01:48:02;;;;;;;9.50;8.60;;;;;;;;;;5041318;28;20462;-69
2021/01/29 01:50:30;;;;;;;9.70;8.80;;;;;;;;;;5050320;28;20456;-67
2021/01/29 01:52:57;;;;;;;8.50;7.77;;;;;;;;;;5052636;28;20452;-69
2021/01/29 01:55:26;;;;;;;8.90;7.90;;;;;;;;;;5050883;28;20491;-69
2021/01/29 01:57:54;;;;;;;8.40;7.70;;;;;;;;;;5051977;28;20452;-70
2021/01/29 02:00:23;;;;;;;8.60;7.90;;;;;;;;;;5050105;28;20466;-70
2021/01/29 02:02:50;;;;;;;8.63;7.93;;;;;;;;;;5050537;28;20479;-70
2021/01/29 02:05:19;;;;;;;8.63;7.73;;;;;;;;;;5050390;28;20857;-69
2021/01/29 02:07:50;;;;;;;8.17;7.37;;;;;;;;;;5052682;28;20456;-69
2021/01/29 02:10:17;;;;;;;7.43;6.83;;;;;;;;;;5051141;28;20479;-68
2021/01/29 02:12:44;;;;;;;7.83;7.13;;;;;;;;;;5052101;28;20456;-68
2021/01/29 02:15:12;;;;;;;7.63;6.83;;;;;;;;;;5050573;28;20494;-69
2021/01/29 02:17:47;;;;;;;7.40;6.90;;;;;;;;;;5049483;28;20487;-69
2021/01/29 02:20:28;;;;;;;7.07;6.37;;;;;;;;;;5040096;28;20482;-67
2021/01/29 02:23:09;;;;;;;7.40;6.80;;;;;;;;;;5051219;28;20866;-68
2021/01/29 02:26:06;;;;;;;7.10;6.50;;;;;;;;;;5050645;28;20491;-69
2021/01/29 02:28:45;;;;;;;7.43;6.80;;;;;;;;;;5052540;28;20490;-69
2021/01/29 02:31:28;;;;;;;7.70;6.93;;;;;;;;;;5057072;28;20450;-69
2021/01/29 02:34:10;;;;;;;7.00;6.50;;;;;;;;;;5050763;28;20471;-69
2021/01/29 02:36:58;;;;;;;9.13;6.47;;;;;;;;;;5053344;28;20455;-68
2021/01/29 02:39:33;;;;;;;6.90;6.40;;;;;;;;;;5056414;28;20463;-70
2021/01/29 02:42:05;;;;;;;6.73;6.23;;;;;;;;;;5057674;28;20444;-69
2021/01/29 02:44:35;;;;;;;7.13;6.43;;;;;;;;;;5058263;28;20533;-69
2021/01/29 02:47:05;;;;;;;6.83;6.17;;;;;;;;;;5055246;28;20466;-68
2021/01/29 02:49:40;;;;;;;6.50;5.90;;;;;;;;;;5055052;28;20487;-68
2021/01/29 02:52:14;;;;;;;6.00;5.53;;;;;;;;;;5074878;28;20541;-69
2021/01/29 02:54:45;;;;;;;6.23;5.73;;;;;;;;;;5054876;28;20479;-69
2021/01/29 02:57:16;;;;;;;6.27;5.77;;;;;;;;;;5053504;28;20950;-69
2021/01/29 02:59:46;;;;;;;5.60;5.20;;;;;;;;;;5054014;28;20443;-69
2021/01/29 03:02:15;;;;;;;6.17;5.57;;;;;;;;;;5052427;28;20467;-70
2021/01/29 03:04:47;;;;;;;6.87;6.27;;;;;;;;;;5052982;28;20491;-68
2021/01/29 03:07:15;;;;;;;6.30;5.70;;;;;;;;;;5055945;28;20950;-69
2021/01/29 03:09:47;;;;;;;6.03;4.90;;;;;;;;;;5056472;28;20880;-70
2021/01/29 03:12:15;;;;;;;6.00;5.50;;;;;;;;;;5055593;28;20438;-69
2021/01/29 03:14:45;;;;;;;6.53;5.90;;;;;;;;;;5053082;28;20979;-69
2021/01/29 03:17:14;;;;;;;5.90;5.03;;;;;;;;;;5055864;28;20444;-70
2021/01/29 03:19:44;;;;;;;5.50;5.10;;;;;;;;;;5053904;28;20460;-69
2021/01/29 03:22:13;;;;;;;5.30;4.90;;;;;;;;;;5055144;28;20451;-69
2021/01/29 03:24:41;;;;;;;5.10;4.70;;;;;;;;;;5055036;28;21036;-68
2021/01/29 03:27:12;;;;;;;5.90;5.50;;;;;;;;;;5053576;28;20451;-70
2021/01/29 03:29:42;;;;;;;8.20;4.63;;;;;;;;;;5054482;28;20475;-68
2021/01/29 03:32:10;;;;;;;5.43;5.03;;;;;;;;;;5053210;28;20460;-68
2021/01/29 03:34:38;;;;;;;4.87;4.53;;;;;;;;;;5052992;28;20536;-68
2021/01/29 03:37:07;;;;;;;4.53;4.23;;;;;;;;;;5053064;28;20471;-70
2021/01/29 03:39:35;;;;;;;5.00;4.60;;;;;;;;;;5052258;28;20464;-70
2021/01/29 03:42:06;;;;;;;5.43;4.93;;;;;;;;;;5053690;28;20452;-68
2021/01/29 03:44:40;;;;;;;5.47;5.07;;;;;;;;;;5052520;28;21002;-70
2021/01/29 03:47:07;;;;;;;4.73;4.43;;;;;;;;;;5054010;28;20423;-70
2021/01/29 03:49:36;;;;;;;5.20;4.80;;;;;;;;;;5052473;28;20854;-70
2021/01/29 03:52:07;;;;;;;5.90;5.40;;;;;;;;;;5053613;28;20958;-70
2021/01/29 03:54:37;;;;;;;5.77;5.33;;;;;;;;;;5052489;28;20483;-69
2021/01/29 03:57:08;;;;;;;6.00;5.40;;;;;;;;;;5053575;28;20502;-69
2021/01/29 03:59:37;;;;;;;5.70;4.70;;;;;;;;;;5052118;28;20958;-70
2021/01/29 04:02:08;;;;;;;5.63;5.13;;;;;;;;;;5053606;28;20444;-68
2021/01/29 04:04:36;;;;;;;6.07;5.57;;;;;;;;;;5049674;28;20499;-68
2021/01/29 04:07:06;;;;;;;6.80;5.90;;;;;;;;;;5053657;28;20451;-68
2021/01/29 04:09:38;;;;;;;6.23;5.73;;;;;;;;;;5052262;28;20471;-69
2021/01/29 04:12:05;;;;;;;6.37;5.80;;;;;;;;;;5053088;28;20448;-69
2021/01/29 04:14:35;;;;;;;7.57;6.90;;;;;;;;;;5050940;28;20909;-69
2021/01/29 04:17:04;;;;;;;6.73;6.00;;;;;;;;;;5052726;28;20448;-68
2021/01/29 04:19:33;;;;;;;8.73;6.20;;;;;;;;;;5051144;28;20950;-68
2021/01/29 04:22:03;;;;;;;6.70;6.10;;;;;;;;;;5055131;28;20455;-68
2021/01/29 04:24:32;;;;;;;5.70;5.30;;;;;;;;;;5055496;28;20495;-68
2021/01/29 04:27:02;;;;;;;6.53;5.97;;;;;;;;;;5053445;28;20509;-67
2021/01/29 04:29:31;;;;;;;6.93;6.30;;;;;;;;;;5051650;28;20534;-68
2021/01/29 04:32:01;;;;;;;6.77;6.23;;;;;;;;;;5052335;28;20514;-68
2021/01/29 04:34:31;;;;;;;7.67;6.23;;;;;;;;;;5051293;28;20550;-68
2021/01/29 04:36:59;;;;;;;7.50;6.37;;;;;;;;;;5052070;28;20525;-69
2021/01/29 04:39:28;;;;;;;6.90;6.20;;;;;;;;;;5052350;28;20440;-68
2021/01/29 04:42:02;;;;;;;6.30;5.70;;;;;;;;;;5051897;28;20464;-68
2021/01/29 04:44:36;;;;;;;7.33;6.13;;;;;;;;;;5052090;28;20463;-68
2021/01/29 04:47:14;;;;;;;6.20;5.70;;;;;;;;;;5051924;28;20470;-67
2021/01/29 04:49:49;;;;;;;6.87;5.97;;;;;;;;;;5051703;28;20480;-67
2021/01/29 04:52:37;;;;;;;6.50;5.90;;;;;;;;;;5051036;28;20459;-69
2021/01/29 04:55:18;;;;;;;6.43;5.83;;;;;;;;;;5022036;28;20468;-67
2021/01/29 04:57:51;;;;;;;7.63;6.63;;;;;;;;;;5050369;28;20463;-67
2021/01/29 05:00:42;;;;;;;6.07;5.60;;;;;;;;;;5051677;28;20469;-67
2021/01/29 05:03:23;;;;;;;6.30;5.77;;;;;;;;;;5051381;28;20491;-67
2021/01/29 05:06:08;;;;;;;6.10;5.50;;;;;;;;;;5017693;28;20498;-68
2021/01/29 05:08:46;;;;;;;7.57;5.90;;;;;;;;;;5049859;28;20456;-67
2021/01/29 05:11:43;;;;;;;6.80;6.17;;;;;;;;;;5051882;28;20446;-68
2021/01/29 05:14:33;;;;;;;8.13;6.60;;;;;;;;;;5009146;28;20492;-67
2021/01/29 05:17:19;;;;;;;7.73;6.00;;;;;;;;;;5011028;28;20461;-68
2021/01/29 05:19:55;;;;;;;6.90;6.27;;;;;;;;;;5051019;28;20474;-67
2021/01/29 05:22:40;;;;;;;5.70;5.20;;;;;;;;;;5052118;28;20439;-67
2021/01/29 05:25:31;;;;;;;7.60;5.80;;;;;;;;;;5050417;28;21012;-67
2021/01/29 05:28:06;;;;;;;5.87;5.47;;;;;;;;;;5036388;28;20514;-68
2021/01/29 05:30:45;;;;;;;7.17;5.10;;;;;;;;;;5046072;28;20482;-68
2021/01/29 05:33:33;;;;;;;7.13;5.40;;;;;;;;;;5051960;28;21013;-68
2021/01/29 05:36:10;;;;;;;7.90;5.50;;;;;;;;;;5050004;28;20490;-68
2021/01/29 05:38:52;;;;;;;7.47;5.77;;;;;;;;;;5050132;28;20467;-68
2021/01/29 05:41:37;;;;;;;5.40;5.00;;;;;;;;;;5051995;28;20458;-68
2021/01/29 05:44:22;;;;;;;5.63;5.23;;;;;;;;;;5048109;28;20799;-68
2021/01/29 05:46:54;;;;;;;6.00;5.27;;;;;;;;;;5050409;28;20815;-68
2021/01/29 05:49:23;;;;;;;6.30;5.80;;;;;;;;;;5051242;28;20483;-68
2021/01/29 05:52:08;;;;;;;6.30;5.80;;;;;;;;;;5050200;28;20578;-67
2021/01/29 05:54:38;;;;;;;6.13;5.53;;;;;;;;;;5051373;28;20544;-67
2021/01/29 05:57:23;;;;;;;5.77;5.37;;;;;;;;;;5050723;28;20471;-68
2021/01/29 05:59:55;;;;;;;6.10;5.20;;;;;;;;;;5051088;28;20931;-68
2021/01/29 06:02:37;;;;;;;5.67;5.17;;;;;;;;;;5048336;28;20474;-69
2021/01/29 06:05:14;;;;;;;5.67;5.00;;;;;;;;;;5055014;28;20481;-68
2021/01/29 06:08:01;;;;;;;7.33;4.90;;;;;;;;;;5061983;28;20533;-68
2021/01/29 06:10:34;;;;;;;5.70;5.30;;;;;;;;;;5048365;28;20494;-68
2021/01/29 06:13:19;;;;;;;5.00;4.60;;;;;;;;;;5054356;28;20468;-68
2021/01/29 06:16:05;;;;;;;5.70;5.00;;;;;;;;;;5055285;28;20478;-68
2021/01/29 06:18:50;;;;;;;5.57;5.20;;;;;;;;;;5054411;28;20463;-68
2021/01/29 06:21:23;;;;;;;7.03;5.57;;;;;;;;;;5053561;28;20585;-68
2021/01/29 06:23:58;;;;;;;6.60;5.80;;;;;;;;;;5055937;28;20450;-67
2021/01/29 06:26:31;;;;;;;6.93;5.33;;;;;;;;;;5056788;28;20440;-67
2021/01/29 06:29:08;;;;;;;7.03;5.00;;;;;;;;;;5057911;28;20495;-67
2021/01/29 06:31:55;;;;;;;5.13;4.73;;;;;;;;;;5055420;28;20965;-66
2021/01/29 06:34:28;;;;;;;5.43;4.40;;;;;;;;;;5054831;28;20475;-68
2021/01/29 06:37:02;;;;;;;7.17;4.80;;;;;;;;;;5049753;28;20459;-68
2021/01/29 06:39:36;;;;;;;5.97;5.17;;;;;;;;;;5052923;28;20451;-67
2021/01/29 06:42:15;;;;;;;4.90;4.47;;;;;;;;;;5055945;28;20954;-68
2021/01/29 06:44:57;;;;;;;5.07;4.60;;;;;;;;;;5050595;28;20553;-68
2021/01/29 06:47:31;;;;;;;7.20;4.73;;;;;;;;;;5035334;28;20871;-67
2021/01/29 06:50:11;;;;;;;5.67;5.20;;;;;;;;;;5039907;28;20494;-67
2021/01/29 06:52:53;;;;;;;5.57;4.53;;;;;;;;;;5062875;28;20454;-68
2021/01/29 06:55:46;;;;;;;6.27;4.40;;;;;;;;;;5048153;28;20511;-68
2021/01/29 06:58:28;;;;;;;4.90;4.50;;;;;;;;;;5033534;28;20950;-68
2021/01/29 07:01:06;;;;;;;5.20;4.60;;;;;;;;;;5061052;28;20466;-68
2021/01/29 07:03:51;;;;;;;4.93;4.43;;;;;;;;;;5058614;28;20950;-68
2021/01/29 07:06:24;;;;;;;6.43;4.20;;;;;;;;;;5056854;28;20463;-68
2021/01/29 07:09:08;;;;;;;5.00;4.60;;;;;;;;;;5056346;28;20471;-68
2021/01/29 07:11:40;;;;;;;3.40;3.10;;;;;;;;;;5052385;28;20459;-71
2021/01/29 07:14:22;;;;;;;6.97;2.30;;;;;;;;;;5053208;28;20475;-72
2021/01/29 07:16:57;;;;;;;5.57;2.40;;;;;;;;;;5056104;28;20448;-68
2021/01/29 07:19:30;;;;;;;7.03;1.83;;;;;;;;;;5041214;28;20443;-68
2021/01/29 07:22:25;;;;;;;6.30;1.60;;;;;;;;;;5055146;28;20860;-68
2021/01/29 07:24:58;;;;;;;1.90;1.27;;;;;;;;;;5048752;28;21014;-68
2021/01/29 07:27:30;;;;;;;2.70;1.50;;;;;;;;;;5054532;28;20444;-68
2021/01/29 07:30:07;;;;;;;1.70;1.40;;;;;;;;;;5034503;28;20484;-68
2021/01/29 07:32:43;;;;;;;3.00;1.37;;;;;;;;;;5053218;28;20473;-69
2021/01/29 07:35:14;;;;;;;1.60;1.20;;;;;;;;;;5053902;28;20846;-68
2021/01/29 07:37:59;;;;;;;2.03;1.20;;;;;;;;;;5052683;28;20468;-68
2021/01/29 07:40:41;;;;;;;1.73;1.40;;;;;;;;;;5053105;28;20462;-68
2021/01/29 07:43:21;;;;;;;2.13;1.00;;;;;;;;;;5052699;28;20495;-68
2021/01/29 07:46:00;;;;;;;2.47;1.27;;;;;;;;;;5053829;28;20528;-68
2021/01/29 07:48:39;;;;;;;2.50;1.00;;;;;;;;;;5053297;28;20478;-68
2021/01/29 07:51:09;;;;;;;2.70;1.50;;;;;;;;;;5051315;28;20514;-68
2021/01/29 07:53:38;;;;;;;2.60;1.57;;;;;;;;;;5053674;28;20452;-68
2021/01/29 07:56:12;;;;;;;1.60;1.10;;;;;;;;;;5052531;28;20497;-68
2021/01/29 07:58:46;;;;;;;1.97;1.10;;;;;;;;;;5053297;28;20448;-68
2021/01/29 08:01:25;;;;;;;2.53;1.27;;;;;;;;;;5053128;28;20778;-68
2021/01/29 08:03:59;;;;;;;2.73;1.10;;;;;;;;;;5052654;28;20447;-68
2021/01/29 08:06:28;;;;;;;2.57;1.60;;;;;;;;;;5053265;28;20455;-68
2021/01/29 08:08:58;;;;;;;2.33;1.23;;;;;;;;;;5052586;28;20459;-68
2021/01/29 08:11:25;;;;;;;2.80;1.30;;;;;;;;;;5053203;28;20470;-69
2021/01/29 08:14:09;;;;;;;1.40;1.00;;;;;;;;;;5052609;28;20444;-68
2021/01/29 08:16:43;;;;;;;2.23;1.03;;;;;;;;;;5050383;28;20455;-67
2021/01/29 08:19:13;;;;;;;6.07;1.13;;;;;;;;;;5053739;28;20446;-68
2021/01/29 08:22:03;;;;;;;1.50;1.17;;;;;;;;;;5051467;28;20464;-68
2021/01/29 08:24:39;;;;;;;1.97;1.60;;;;;;;;;;5047026;28;20480;-67
2021/01/29 08:27:24;;;;;;;4.60;3.13;;;;;;;;;;5052233;28;20440;-69
2021/01/29 08:30:02;;;;;;;8.03;4.23;;;;;;;;;;5052448;28;20468;-67
2021/01/29 08:32:53;;;;;;;7.43;3.80;;;;;;;;;;5052846;28;20509;-69
2021/01/29 08:35:30;;;;;;;5.73;4.03;;;;;;;;;;5036196;28;20990;-69
2021/01/29 08:37:59;;;;;;;3.50;3.30;;;;;;;;;;5052640;28;20432;-69
2021/01/29 08:40:29;;;;;;;4.60;3.37;;;;;;;;;;5040877;28;20447;-70
2021/01/29 08:43:07;;;;;;;4.30;3.70;;;;;;;;;;5048159;28;20481;-69
2021/01/29 08:45:44;;;;;;;9.23;4.20;;;;;;;;;;5048208;28;20471;-64
2021/01/29 08:48:14;;;;;;;7.50;3.70;;;;;;;;;;5051636;28;20826;-65
2021/01/29 08:50:48;;;;;;;5.77;4.20;;;;;;;;;;5051910;28;20484;-69
2021/01/29 08:53:30;;;;;;;4.37;3.47;;;;;;;;;;5051729;28;20440;-68
2021/01/29 08:56:00;;;;;;;3.93;3.60;;;;;;;;;;5051158;28;20490;-68
2021/01/29 08:58:31;;;;;;;4.07;3.60;;;;;;;;;;5052527;28;20436;-68
2021/01/29 09:01:01;;;;;;;4.53;4.10;;;;;;;;;;5052319;28;20451;-69
2021/01/29 09:03:31;;;;;;;4.50;4.10;;;;;;;;;;5052492;28;20517;-68
2021/01/29 09:06:01;;;;;;;4.53;3.60;;;;;;;;;;5052162;28;20507;-70
2021/01/29 09:08:28;;;;;;;4.07;3.67;;;;;;;;;;5052370;28;20814;-70
2021/01/29 09:11:00;;;;;;;4.10;3.80;;;;;;;;;;5051500;28;21070;-67
2021/01/29 09:13:28;;;;;;;4.17;3.77;;;;;;;;;;5051801;28;20443;-69
2021/01/29 09:16:00;;;;;;;6.53;3.70;;;;;;;;;;5052634;28;20468;-76
2021/01/29 09:18:30;;;;;;;3.87;3.30;;;;;;;;;;5051058;28;20456;-70
2021/01/29 09:21:03;;;;;;;4.13;3.73;;;;;;;;;;5049715;28;20527;-69
2021/01/29 09:23:34;;;;;;;3.73;3.43;;;;;;;;;;5050871;28;20447;-70
2021/01/29 09:26:05;;;;;;;3.70;3.40;;;;;;;;;;5051539;28;20476;-70
2021/01/29 09:28:33;;;;;;;3.77;3.47;;;;;;;;;;5051226;28;20954;-68
2021/01/29 09:31:03;;;;;;;4.80;4.30;;;;;;;;;;5051523;28;20491;-69
2021/01/29 09:33:33;;;;;;;4.30;3.67;;;;;;;;;;5051123;28;20444;-68
2021/01/29 09:36:00;;;;;;;4.93;3.33;;;;;;;;;;5050936;28;20467;-68
2021/01/29 09:38:29;;;;;;;3.90;3.60;;;;;;;;;;5050848;28;20455;-68
2021/01/29 09:40:59;;;;;;;3.80;3.23;;;;;;;;;;5051230;28;20459;-70
2021/01/29 09:43:30;;;;;;;3.73;3.40;;;;;;;;;;5051550;28;20450;-70
2021/01/29 09:45:58;;;;;;;3.77;3.47;;;;;;;;;;5051300;28;20482;-70
2021/01/29 09:48:26;;;;;;;7.17;3.80;;;;;;;;;;5050411;28;20448;-71
2021/01/29 09:51:02;;;;;;;4.83;3.60;;;;;;;;;;5051356;28;20479;-70
2021/01/29 09:53:37;;;;;;;3.27;3.00;;;;;;;;;;5042510;28;21001;-70
2021/01/29 09:56:06;;;;;;;5.00;3.70;;;;;;;;;;5042257;28;20559;-70
2021/01/29 09:58:36;;;;;;;5.23;3.83;;;;;;;;;;5031090;28;20448;-71
2021/01/29 10:01:06;;;;;;;3.90;3.60;;;;;;;;;;5040514;28;20829;-70
2021/01/29 10:03:35;;;;;;;3.70;3.20;;;;;;;;;;5051503;28;20448;-70
2021/01/29 10:06:04;;;;;;;13.73;4.20;;;;;;;;;;5049757;28;20537;-70
2021/01/29 10:08:33;;;;;;;4.50;4.10;;;;;;;;;;5050144;28;20526;-70
2021/01/29 10:11:03;;;;;;;3.60;3.30;;;;;;;;;;5047906;28;20886;-70
2021/01/29 10:13:41;;;;;;;6.60;3.43;;;;;;;;;;5056921;28;20452;-70
2021/01/29 10:16:23;;;;;;;3.70;3.40;;;;;;;;;;5071542;28;20459;-70
2021/01/29 10:18:56;;;;;;;4.13;3.73;;;;;;;;;;5059361;28;20661;-70
2021/01/29 10:21:30;;;;;;;4.70;3.80;;;;;;;;;;5071754;28;20473;-70
2021/01/29 10:24:01;;;;;;;4.13;3.33;;;;;;;;;;5054945;28;20501;-71
2021/01/29 10:26:31;;;;;;;3.93;3.63;;;;;;;;;;5053193;28;20514;-70
2021/01/29 10:29:04;;;;;;;3.40;3.10;;;;;;;;;;5053322;28;20955;-70
2021/01/29 10:31:38;;;;;;;5.40;3.67;;;;;;;;;;5052301;28;20466;-70
2021/01/29 10:34:16;;;;;;;3.83;3.53;;;;;;;;;;5053849;28;20444;-70
2021/01/29 10:36:44;;;;;;;3.80;3.50;;;;;;;;;;5051368;28;20444;-70
2021/01/29 10:39:13;;;;;;;4.10;3.70;;;;;;;;;;5035029;28;20461;-70
2021/01/29 10:41:46;;;;;;;3.70;3.40;;;;;;;;;;5033618;28;20444;-70
2021/01/29 10:44:15;;;;;;;3.50;3.17;;;;;;;;;;5049976;28;20498;-70
2021/01/29 10:46:52;;;;;;;3.77;3.40;;;;;;;;;;5047335;28;20458;-70
2021/01/29 10:49:23;;;;;;;3.10;2.90;;;;;;;;;;5032990;28;20851;-70
2021/01/29 10:51:58;;;;;;;3.80;3.47;;;;;;;;;;5045362;28;20801;-71
2021/01/29 10:54:32;;;;;;;3.30;3.10;;;;;;;;;;5058542;28;20994;-71
2021/01/29 10:57:04;;;;;;;3.90;3.23;;;;;;;;;;5064373;28;20452;-70
2021/01/29 10:59:37;;;;;;;3.93;3.33;;;;;;;;;;5059924;28;20448;-70
2021/01/29 11:02:05;;;;;;;4.83;3.30;;;;;;;;;;5058587;28;20935;-71
2021/01/29 11:04:33;;;;;;;3.90;3.60;;;;;;;;;;5053576;28;20480;-71
2021/01/29 11:07:03;;;;;;;3.77;3.47;;;;;;;;;;5054434;28;20985;-70
2021/01/29 11:09:31;;;;;;;4.13;3.20;;;;;;;;;;5053643;28;20479;-71
2021/01/29 11:12:09;;;;;;;3.67;3.37;;;;;;;;;;5054161;28;20451;-70
2021/01/29 11:14:38;;;;;;;3.57;3.27;;;;;;;;;;5052872;28;20471;-71
2021/01/29 11:17:07;;;;;;;3.20;2.93;;;;;;;;;;5055135;28;20448;-72
2021/01/29 11:19:36;;;;;;;3.53;3.23;;;;;;;;;;5053115;28;20448;-73
2021/01/29 11:22:12;;;;;;;3.20;3.00;;;;;;;;;;5047005;28;20470;-73
2021/01/29 11:24:41;;;;;;;4.40;3.20;;;;;;;;;;5053445;28;20471;-74
2021/01/29 11:27:13;;;;;;;3.90;3.33;;;;;;;;;;5036475;28;20459;-74
2021/01/29 11:29:42;;;;;;;5.03;3.40;;;;;;;;;;5052093;28;20484;-74
2021/01/29 11:32:23;;;;;;;3.80;3.50;;;;;;;;;;5049849;28;20863;-73
2021/01/29 11:34:54;;;;;;;4.00;3.60;;;;;;;;;;5053940;28;20468;-73
2021/01/29 11:37:24;;;;;;;3.93;3.53;;;;;;;;;;5047586;28;20855;-73
2021/01/29 11:39:57;;;;;;;4.03;3.00;;;;;;;;;;5053422;28;20474;-73
2021/01/29 11:42:28;;;;;;;4.60;3.63;;;;;;;;;;5055448;28;20451;-73
2021/01/29 11:44:57;;;;;;;4.10;3.70;;;;;;;;;;5058498;28;20472;-73
2021/01/29 11:47:28;;;;;;;3.83;3.53;;;;;;;;;;5053644;28;20452;-73
2021/01/29 11:49:59;;;;;;;3.60;3.30;;;;;;;;;;5052730;28;20486;-73
2021/01/29 11:52:29;;;;;;;5.03;3.90;;;;;;;;;;5053486;28;20450;-73
2021/01/29 11:55:05;;;;;;;3.67;3.37;;;;;;;;;;5052656;28;20995;-74
2021/01/29 11:57:34;;;;;;;3.97;3.63;;;;;;;;;;5052792;28;20586;-75
2021/01/29 12:00:08;;;;;;;3.60;3.30;;;;;;;;;;5052581;28;20523;-74
2021/01/29 12:02:36;;;;;;;3.63;3.37;;;;;;;;;;5053000;28;20452;-74
2021/01/29 12:05:08;;;;;;;4.00;3.60;;;;;;;;;;5049001;28;20499;-73
2021/01/29 12:07:39;;;;;;;4.70;3.90;;;;;;;;;;5052636;28;20448;-73
2021/01/29 12:10:09;;;;;;;4.17;3.77;;;;;;;;;;5053021;28;20528;-73
2021/01/29 12:12:39;;;;;;;4.37;3.77;;;;;;;;;;5052742;28;20452;-73
2021/01/29 12:15:14;;;;;;;4.40;3.30;;;;;;;;;;5052263;28;20472;-73
2021/01/29 12:17:42;;;;;;;4.10;3.73;;;;;;;;;;5051965;28;20481;-73
2021/01/29 12:20:10;;;;;;;3.63;3.33;;;;;;;;;;5049039;28;20444;-73
2021/01/29 12:22:40;;;;;;;3.67;3.37;;;;;;;;;;5041082;28;20448;-73
2021/01/29 12:25:39;;;;;;;3.63;3.37;;;;;;;;;;5058440;28;20519;-73
2021/01/29 12:28:11;;;;;;;3.97;3.60;;;;;;;;;;5032669;28;20465;-73
2021/01/29 12:30:41;;;;;;;4.07;3.77;;;;;;;;;;5022928;28;20558;-73
2021/01/29 12:33:10;;;;;;;4.30;3.90;;;;;;;;;;5032515;28;20530;-73
2021/01/29 12:35:44;;;;;;;4.23;3.93;;;;;;;;;;5052133;28;20547;-73
2021/01/29 12:38:16;;;;;;;5.40;4.90;;;;;;;;;;5052450;28;20454;-72
2021/01/29 12:40:44;;;;;;;5.03;4.63;;;;;;;;;;5051931;28;20448;-73
2021/01/29 12:43:18;;;;;;;5.53;5.03;;;;;;;;;;5048225;28;20465;-73
2021/01/29 12:45:51;;;;;;;4.47;4.07;;;;;;;;;;5048591;28;20846;-73
2021/01/29 12:48:20;;;;;;;5.20;4.73;;;;;;;;;;5051937;28;20522;-73
2021/01/29 12:50:56;;;;;;;4.47;4.17;;;;;;;;;;5051799;28;20488;-73
2021/01/29 12:53:27;;;;;;;5.90;4.60;;;;;;;;;;5051707;28;20491;-73
2021/01/29 12:55:56;;;;;;;4.83;4.53;;;;;;;;;;5052105;28;20468;-73
2021/01/29 12:58:23;;;;;;;4.70;4.20;;;;;;;;;;5051773;28;20520;-71
2021/01/29 13:00:51;;;;;;;5.43;4.97;;;;;;;;;;5051543;28;20541;-72
2021/01/29 13:03:28;;;;;;;5.83;5.33;;;;;;;;;;5044848;28;20466;-72
2021/01/29 13:06:00;;;;;;;6.00;4.87;;;;;;;;;;5036454;28;20483;-72
2021/01/29 13:08:35;;;;;;;6.70;5.10;;;;;;;;;;5051288;28;20973;-72
2021/01/29 13:11:06;;;;;;;6.53;5.93;;;;;;;;;;5051062;28;20496;-72
2021/01/29 13:13:36;;;;;;;5.87;5.33;;;;;;;;;;5050781;28;20494;-72
2021/01/29 13:16:07;;;;;;;5.50;5.10;;;;;;;;;;5051424;28;20471;-72
2021/01/29 13:18:43;;;;;;;6.00;5.50;;;;;;;;;;5051978;28;20436;-72
2021/01/29 13:21:14;;;;;;;6.00;5.50;;;;;;;;;;5052065;28;20452;-72
2021/01/29 13:23:41;;;;;;;5.63;5.23;;;;;;;;;;5037566;28;20823;-72
2021/01/29 13:26:10;;;;;;;6.47;5.97;;;;;;;;;;5051445;28;20472;-72
2021/01/29 13:28:37;;;;;;;5.83;5.27;;;;;;;;;;5048662;28;20452;-72
2021/01/29 13:31:12;;;;;;;5.43;5.03;;;;;;;;;;5051712;28;20516;-72
2021/01/29 13:33:45;;;;;;;6.77;6.17;;;;;;;;;;5050793;28;20467;-72
2021/01/29 13:36:18;;;;;;;5.40;4.90;;;;;;;;;;5040386;28;20472;-72
2021/01/29 13:38:45;;;;;;;7.20;5.70;;;;;;;;;;5051871;28;20452;-72
2021/01/29 13:41:13;;;;;;;7.37;5.63;;;;;;;;;;5051002;28;20456;-72
2021/01/29 13:43:41;;;;;;;5.43;5.00;;;;;;;;;;5050665;28;20448;-72
2021/01/29 13:46:09;;;;;;;5.50;5.00;;;;;;;;;;5051438;28;20475;-72
2021/01/29 13:48:36;;;;;;;5.67;5.17;;;;;;;;;;5050948;28;20443;-72
2021/01/29 13:51:21;;;;;;;5.40;5.00;;;;;;;;;;5051030;28;20479;-72
2021/01/29 13:53:49;;;;;;;8.50;6.27;;;;;;;;;;5051769;28;20436;-72
2021/01/29 13:56:28;;;;;;;8.10;6.53;;;;;;;;;;5050769;28;20455;-72
2021/01/29 13:58:59;;;;;;;6.87;6.27;;;;;;;;;;5050833;28;20505;-72
2021/01/29 14:01:30;;;;;;;6.17;5.77;;;;;;;;;;5046331;28;20455;-72
2021/01/29 14:04:01;;;;;;;5.80;5.20;;;;;;;;;;5051769;28;20444;-72
2021/01/29 14:06:29;;;;;;;6.00;5.40;;;;;;;;;;5052329;28;20486;-72
2021/01/29 14:08:56;;;;;;;6.90;6.30;;;;;;;;;;5050411;28;20801;-72
2021/01/29 14:11:29;;;;;;;6.50;5.90;;;;;;;;;;5050526;28;20491;-72
2021/01/29 14:14:02;;;;;;;6.93;6.03;;;;;;;;;;5046751;28;20444;-72
2021/01/29 14:16:33;;;;;;;6.30;5.70;;;;;;;;;;5050273;28;20448;-72
2021/01/29 14:19:09;;;;;;;8.80;6.10;;;;;;;;;;5050146;28;20931;-72
2021/01/29 14:21:38;;;;;;;7.00;6.30;;;;;;;;;;5050867;28;20444;-72
2021/01/29 14:24:10;;;;;;;8.33;7.43;;;;;;;;;;5048378;28;20813;-72
2021/01/29 14:26:40;;;;;;;7.47;6.77;;;;;;;;;;5047759;28;20464;-72
2021/01/29 14:29:12;;;;;;;8.43;6.30;;;;;;;;;;5047460;28;20447;-72
2021/01/29 14:31:42;;;;;;;7.30;6.60;;;;;;;;;;5054638;28;20487;-72
2021/01/29 14:34:26;;;;;;;7.50;6.80;;;;;;;;;;5054845;28;20435;-72
2021/01/29 14:37:01;;;;;;;7.13;6.50;;;;;;;;;;5055120;28;20810;-72
2021/01/29 14:39:36;;;;;;;7.50;6.80;;;;;;;;;;5054535;28;20470;-72
2021/01/29 14:42:13;;;;;;;7.83;7.13;;;;;;;;;;5055107;28;20513;-72
2021/01/29 14:44:51;;;;;;;7.60;6.77;;;;;;;;;;5054600;28;20473;-72
2021/01/29 14:47:26;;;;;;;5.90;5.50;;;;;;;;;;5054580;28;20494;-72
2021/01/29 14:50:07;;;;;;;7.03;5.43;;;;;;;;;;5053378;28;20880;-72
2021/01/29 14:52:39;;;;;;;6.03;5.63;;;;;;;;;;5054782;28;20435;-72
2021/01/29 14:55:09;;;;;;;6.10;5.60;;;;;;;;;;5057976;28;20467;-73
2021/01/29 14:57:43;;;;;;;6.00;5.50;;;;;;;;;;5035148;28;20812;-73
2021/01/29 15:00:10;;;;;;;5.17;4.87;;;;;;;;;;5020369;28;20825;-70
2021/01/29 15:02:41;;;;;;;5.57;5.17;;;;;;;;;;5013638;28;20476;-70
2021/01/29 15:05:10;;;;;;;6.47;5.87;;;;;;;;;;5016337;28;20480;-70
2021/01/29 15:07:37;;;;;;;5.77;5.10;;;;;;;;;;5026844;28;20450;-70
2021/01/29 15:10:05;;;;;;;5.77;4.87;;;;;;;;;;5013567;28;20512;-70
2021/01/29 15:12:37;;;;;;;5.70;5.03;;;;;;;;;;5014306;28;20442;-70
2021/01/29 15:15:24;;;;;;;5.73;5.23;;;;;;;;;;5004532;28;20995;-70
2021/01/29 15:17:51;;;;;;;6.07;5.60;;;;;;;;;;5022614;28;20479;-71